Time;durP1;ratioP1;P1;durP2;ratioP2;P2;SDS_P1;SDS_P2;PMS_P1;PMS_P2;Temp;Humidity;BMP_temperature;BMP_pressure;BME280_temperature;BME280_humidity;BME280_pressure;Samples;Min_cycle;Max_cycle;Signal;HPM_P1;HPM_P2
2022/07/17 00:01:16;;;;;;;5.75;3.47;;;20.40;95.50;;;;;;5038881;28;20020;-85
2022/07/17 00:03:48;;;;;;;5.70;2.85;;;20.40;95.70;;;;;;5056909;28;20055;-83
2022/07/17 00:06:17;;;;;;;10.27;3.85;;;20.40;95.60;;;;;;5044414;23;20322;-85
2022/07/17 00:08:43;;;;;;;7.22;4.13;;;20.30;96.10;;;;;;5056851;28;20203;-82
2022/07/17 00:11:11;;;;;;;6.63;3.20;;;20.10;96.40;;;;;;5056571;28;20336;-84
2022/07/17 00:13:53;;;;;;;8.00;3.83;;;20.20;96.60;;;;;;5040643;28;20039;-85
2022/07/17 00:16:25;;;;;;;8.30;3.92;;;20.10;96.60;;;;;;5060292;28;20241;-82
2022/07/17 00:18:51;;;;;;;7.50;3.63;;;20.10;96.70;;;;;;5041564;28;20102;-82
2022/07/17 00:21:23;;;;;;;8.48;3.53;;;20.10;96.80;;;;;;5042326;28;20111;-84
2022/07/17 00:23:48;;;;;;;6.78;3.55;;;20.00;97.10;;;;;;5060123;28;20028;-84
2022/07/17 00:26:54;;;;;;;6.32;3.05;;;20.00;96.60;;;;;;5075724;23;20522;-83
2022/07/17 00:29:32;;;;;;;6.95;3.35;;;20.30;96.80;;;;;;5038622;28;20103;-83
2022/07/17 00:33:05;;;;;;;8.20;4.13;;;20.00;97.40;;;;;;5059844;23;20352;-83
2022/07/17 00:35:38;;;;;;;7.88;3.80;;;19.80;97.00;;;;;;5041763;28;20116;-85
2022/07/17 00:38:04;;;;;;;12.02;3.25;;;19.80;97.20;;;;;;5059982;28;20364;-83
2022/07/17 00:40:39;;;;;;;7.65;4.40;;;19.80;97.50;;;;;;5059922;28;20300;-85
2022/07/17 00:43:05;;;;;;;6.05;3.10;;;;;;;;;;5041484;28;20518;-80
2022/07/17 00:46:11;;;;;;;6.85;3.25;;;19.60;97.50;;;;;;5064348;23;20020;-87
2022/07/17 00:48:43;;;;;;;6.65;3.28;;;19.50;97.60;;;;;;5082309;23;20229;-85
2022/07/17 00:51:21;;;;;;;8.00;3.20;;;19.50;98.20;;;;;;5059510;28;20233;-84
2022/07/17 00:53:58;;;;;;;8.35;3.22;;;19.60;97.90;;;;;;5041474;28;20507;-81
2022/07/17 00:56:42;;;;;;;7.80;3.03;;;19.50;97.60;;;;;;5057175;23;20375;-83
2022/07/17 00:59:08;;;;;;;8.70;3.65;;;;;;;;;;5020635;28;20072;-81
2022/07/17 01:01:34;;;;;;;9.40;5.13;;;19.50;97.70;;;;;;5030899;23;20024;-81
2022/07/17 01:04:18;;;;;;;12.13;4.32;;;19.50;97.80;;;;;;5021151;28;20238;-84
2022/07/17 01:06:44;;;;;;;7.13;3.58;;;19.60;98.50;;;;;;5039626;28;20488;-83
2022/07/17 01:11:50;;;;;;;8.65;3.83;;;19.40;98.50;;;;;;5037102;28;20056;-83
2022/07/17 01:14:19;;;;;;;8.25;3.78;;;19.40;98.70;;;;;;5039643;28;20106;-83
2022/07/17 01:16:57;;;;;;;7.93;3.33;;;19.30;98.60;;;;;;5037358;28;20489;-84
2022/07/17 01:19:55;;;;;;;10.13;4.53;;;19.30;98.50;;;;;;5038625;28;20032;-81
2022/07/17 01:25:05;;;;;;;14.43;4.95;;;19.30;98.60;;;;;;5023710;22;20041;-81
2022/07/17 01:27:31;;;;;;;7.20;3.38;;;19.20;98.60;;;;;;5019168;28;20036;-81
2022/07/17 01:30:05;;;;;;;7.43;3.60;;;19.20;98.40;;;;;;5018737;28;20233;-85
2022/07/17 01:32:38;;;;;;;6.70;3.50;;;19.30;98.70;;;;;;5022552;23;20052;-79
2022/07/17 01:35:13;;;;;;;8.38;3.88;;;19.90;99.00;;;;;;5037653;28;20025;-82
2022/07/17 01:38:04;;;;;;;7.43;4.00;;;19.20;99.00;;;;;;5038774;28;20340;-85
2022/07/17 01:40:33;;;;;;;6.60;3.40;;;18.70;98.70;;;;;;5038511;28;20049;-83
2022/07/17 01:43:05;;;;;;;8.50;3.80;;;19.20;99.00;;;;;;5038704;28;20072;-84
2022/07/17 01:45:37;;;;;;;6.80;4.00;;;19.20;99.10;;;;;;5037286;28;20025;-84
2022/07/17 01:50:40;;;;;;;6.07;3.35;;;19.10;98.70;;;;;;5137780;22;20023;-82
2022/07/17 01:53:18;;;;;;;11.27;3.45;;;19.10;99.10;;;;;;5000918;28;20480;-81
2022/07/17 01:55:55;;;;;;;7.30;3.92;;;19.20;99.00;;;;;;5018833;28;20022;-85
2022/07/17 01:58:36;;;;;;;7.78;4.53;;;19.10;99.20;;;;;;5018676;28;20044;-82
2022/07/17 02:01:02;;;;;;;10.38;4.10;;;20.30;99.30;;;;;;5017993;28;20551;-82
2022/07/17 02:03:31;;;;;;;7.93;4.22;;;19.00;99.10;;;;;;5020509;23;20061;-81
2022/07/17 02:08:50;;;;;;;7.50;3.30;;;19.90;99.90;;;;;;5019956;22;20049;-84
2022/07/17 02:11:25;;;;;;;7.22;3.47;;;18.90;99.90;;;;;;5021155;22;20112;-83
2022/07/17 02:14:03;;;;;;;6.93;3.85;;;18.90;99.90;;;;;;4998844;28;20028;-85
2022/07/17 02:16:31;;;;;;;5.95;2.97;;;18.80;99.60;;;;;;4998607;28;20026;-84
2022/07/17 02:19:00;;;;;;;8.88;3.45;;;19.00;99.90;;;;;;5013333;28;20060;-84
2022/07/17 02:21:26;;;;;;;9.45;3.80;;;19.00;99.70;;;;;;4998757;28;20026;-82
2022/07/17 02:24:01;;;;;;;10.02;3.97;;;19.00;99.60;;;;;;5167868;22;20497;-84
2022/07/17 02:26:45;;;;;;;7.78;3.72;;;19.00;99.70;;;;;;5018453;28;20105;-82
2022/07/17 02:29:31;;;;;;;7.40;3.97;;;19.20;99.90;;;;;;5015987;28;20065;-82
2022/07/17 02:31:58;;;;;;;8.88;3.65;;;18.80;99.70;;;;;;4999451;28;20553;-85
2022/07/17 02:34:36;;;;;;;6.85;3.45;;;18.80;99.90;;;;;;5017988;28;20021;-82
2022/07/17 02:37:02;;;;;;;7.03;3.47;;;18.80;99.90;;;;;;5009468;23;20681;-82
2022/07/17 02:39:52;;;;;;;7.45;3.55;;;18.80;99.90;;;;;;4997807;28;20331;-85
2022/07/17 02:42:26;;;;;;;6.82;3.38;;;18.80;99.90;;;;;;4996218;28;20539;-81
2022/07/17 02:44:52;;;;;;;6.68;3.00;;;18.80;99.90;;;;;;5009918;23;20049;-83
2022/07/17 02:50:07;;;;;;;7.35;3.70;;;19.20;99.90;;;;;;5097972;22;20057;-84
2022/07/17 02:52:49;;;;;;;8.77;3.50;;;18.70;99.90;;;;;;4996385;28;20330;-82
2022/07/17 02:55:31;;;;;;;7.70;3.70;;;18.70;99.90;;;;;;4997909;28;20097;-82
2022/07/17 02:58:05;;;;;;;8.98;3.90;;;18.60;99.90;;;;;;4997627;28;20496;-82
2022/07/17 03:00:31;;;;;;;6.85;3.90;;;18.50;99.90;;;;;;4997797;28;20330;-83
2022/07/17 03:02:57;;;;;;;7.53;3.78;;;18.50;99.90;;;;;;5010441;23;20405;-85
2022/07/17 03:05:35;;;;;;;10.75;3.88;;;18.60;99.90;;;;;;4999543;28;20216;-83
2022/07/17 03:08:06;;;;;;;8.18;3.45;;;18.50;99.90;;;;;;4999666;28;20098;-85
2022/07/17 03:10:44;;;;;;;7.30;3.47;;;19.90;99.90;;;;;;5015489;28;20120;-81
2022/07/17 03:15:41;;;;;;;7.70;4.10;;;18.40;99.90;;;;;;5035191;23;20141;-82
2022/07/17 03:18:07;;;;;;;10.02;3.78;;;18.30;99.90;;;;;;5020715;22;20057;-83
2022/07/17 03:20:51;;;;;;;8.20;4.25;;;18.30;99.90;;;;;;4997056;28;20322;-84
2022/07/17 03:23:29;;;;;;;11.55;3.92;;;18.40;99.90;;;;;;5006347;23;20054;-83
2022/07/17 03:25:54;;;;;;;6.28;3.28;;;18.40;99.90;;;;;;5012394;28;20030;-83
2022/07/17 03:28:20;;;;;;;7.07;3.83;;;18.30;99.90;;;;;;4996342;28;20049;-83
2022/07/17 03:30:56;;;;;;;6.97;3.72;;;18.40;99.90;;;;;;4996253;28;20022;-83
2022/07/17 03:33:22;;;;;;;7.93;3.35;;;18.30;99.90;;;;;;5015122;23;20108;-84
2022/07/17 03:36:03;;;;;;;6.68;3.28;;;18.30;99.90;;;;;;5017480;28;20034;-85
2022/07/17 03:38:35;;;;;;;9.50;4.70;;;18.40;99.90;;;;;;5017527;28;20033;-86
2022/07/17 03:41:06;;;;;;;10.02;3.90;;;18.40;99.90;;;;;;5017454;28;20021;-84
2022/07/17 03:43:42;;;;;;;7.55;3.63;;;18.40;99.90;;;;;;4999520;28;20401;-85
2022/07/17 03:48:40;;;;;;;9.77;3.97;;;18.40;99.90;;;;;;5016101;22;20307;-86
2022/07/17 03:53:49;;;;;;;7.63;3.95;;;18.50;99.90;;;;;;5030801;22;20064;-86
2022/07/17 03:56:17;;;;;;;9.25;3.67;;;18.50;99.90;;;;;;5021604;23;20123;-82
2022/07/17 03:58:53;;;;;;;7.60;3.42;;;18.40;99.90;;;;;;5025765;23;20054;-81
2022/07/17 04:01:22;;;;;;;8.30;3.80;;;18.40;99.90;;;;;;5016059;28;20584;-82
2022/07/17 04:03:57;;;;;;;9.68;4.18;;;18.50;99.90;;;;;;5000946;28;20030;-84
2022/07/17 04:06:26;;;;;;;9.55;5.95;;;18.50;99.90;;;;;;5001039;28;20026;-83
2022/07/17 04:09:04;;;;;;;14.35;7.05;;;18.60;99.90;;;;;;5015872;28;20489;-81
2022/07/17 04:11:48;;;;;;;15.52;7.30;;;18.70;99.90;;;;;;5000752;28;20030;-81
2022/07/17 04:14:14;;;;;;;10.23;6.00;;;18.70;99.90;;;;;;4999457;28;20026;-81
2022/07/17 04:16:46;;;;;;;10.63;5.40;;;18.90;99.90;;;;;;5015920;28;20052;-83
2022/07/17 04:19:12;;;;;;;8.45;4.63;;;19.00;99.90;;;;;;5000557;28;20030;-83
2022/07/17 04:21:38;;;;;;;8.18;4.60;;;18.90;99.90;;;;;;5000648;28;20018;-83
2022/07/17 04:24:04;;;;;;;8.13;4.65;;;19.00;99.90;;;;;;4998805;28;20044;-83
2022/07/17 04:26:30;;;;;;;7.15;4.05;;;19.10;99.90;;;;;;5000007;28;20022;-83
2022/07/17 04:29:07;;;;;;;7.65;3.80;;;19.20;99.90;;;;;;5012578;22;20710;-84
2022/07/17 04:31:49;;;;;;;8.20;4.55;;;19.30;99.90;;;;;;5002453;28;20505;-86
2022/07/17 04:34:17;;;;;;;9.80;4.30;;;19.40;99.90;;;;;;5019748;28;20419;-82
2022/07/17 04:36:43;;;;;;;8.45;4.05;;;19.50;99.90;;;;;;5002127;28;20352;-81
2022/07/17 04:39:14;;;;;;;7.35;4.07;;;19.60;99.90;;;;;;5001351;28;20677;-84
2022/07/17 04:41:43;;;;;;;9.23;4.45;;;19.70;99.70;;;;;;5020020;28;20088;-84
2022/07/17 04:44:12;;;;;;;9.32;4.32;;;19.70;99.50;;;;;;5009514;23;20116;-84
2022/07/17 04:46:37;;;;;;;8.00;4.22;;;19.60;99.70;;;;;;4998678;28;20481;-83
2022/07/17 04:49:03;;;;;;;7.43;3.95;;;19.60;99.50;;;;;;4982760;28;20045;-82
2022/07/17 04:51:29;;;;;;;9.38;3.80;;;19.70;99.60;;;;;;5001040;28;20033;-83
2022/07/17 04:54:07;;;;;;;10.95;4.30;;;19.70;99.60;;;;;;4998937;28;20029;-85
2022/07/17 04:56:36;;;;;;;9.60;5.63;;;19.80;99.50;;;;;;4998395;28;20246;-83
2022/07/17 05:01:45;;;;;;;13.68;7.20;;;20.00;98.70;;;;;;5042685;22;20340;-82
2022/07/17 05:04:31;;;;;;;8.98;4.65;;;20.00;98.50;;;;;;5046190;23;20049;-81
2022/07/17 05:07:09;;;;;;;9.07;4.68;;;20.00;98.90;;;;;;5021514;23;20262;-82
2022/07/17 05:09:35;;;;;;;7.70;4.35;;;20.00;98.90;;;;;;5000344;28;20508;-82
2022/07/17 05:14:53;;;;;;;7.68;3.33;;;20.20;98.50;;;;;;5024140;23;20185;-82
2022/07/17 05:17:19;;;;;;;9.68;3.92;;;20.20;98.90;;;;;;5022332;22;20123;-83
2022/07/17 05:19:45;;;;;;;6.70;3.90;;;20.30;98.60;;;;;;5032483;23;20515;-81
2022/07/17 05:24:56;;;;;;;7.45;4.22;;;20.40;98.30;;;;;;5023722;22;20085;-82
2022/07/17 05:27:28;;;;;;;7.13;4.13;;;20.50;98.30;;;;;;5018972;28;20556;-81
2022/07/17 05:30:04;;;;;;;10.20;4.65;;;20.60;98.20;;;;;;5017439;28;20041;-83
2022/07/17 05:32:33;;;;;;;10.40;4.97;;;20.70;97.70;;;;;;5023778;23;20021;-84
2022/07/17 05:35:25;;;;;;;8.93;4.47;;;20.70;98.20;;;;;;4999801;28;20335;-84
2022/07/17 05:38:09;;;;;;;10.07;4.90;;;20.70;98.10;;;;;;4937688;29;20043;-81
2022/07/17 05:40:38;;;;;;;8.75;4.85;;;20.60;98.00;;;;;;4937772;29;20388;-84
2022/07/17 05:43:04;;;;;;;8.05;3.95;;;;;;;;;;4921867;29;20230;-81
2022/07/17 05:45:30;;;;;;;10.95;4.72;;;20.80;97.60;;;;;;4938102;29;20035;-81
2022/07/17 05:48:06;;;;;;;9.32;4.60;;;20.70;97.70;;;;;;4938026;28;20037;-82
2022/07/17 05:50:36;;;;;;;9.88;5.07;;;20.70;97.90;;;;;;4921716;29;20350;-83
2022/07/17 05:53:04;;;;;;;9.30;4.55;;;20.70;98.20;;;;;;4921723;29;20019;-83
2022/07/17 05:55:36;;;;;;;10.05;5.20;;;20.80;97.80;;;;;;4937397;29;20031;-82
2022/07/17 05:58:02;;;;;;;8.52;4.50;;;20.80;97.70;;;;;;4937717;29;20332;-83
2022/07/17 06:00:40;;;;;;;9.20;5.00;;;21.00;97.70;;;;;;4922031;29;20023;-83
2022/07/17 06:03:24;;;;;;;10.32;4.95;;;21.10;97.30;;;;;;4921448;29;20054;-85
2022/07/17 06:05:56;;;;;;;11.35;5.03;;;22.80;97.40;;;;;;4921609;29;20086;-82
2022/07/17 06:08:31;;;;;;;12.40;5.32;;;21.50;96.90;;;;;;4921589;29;20070;-83
2022/07/17 06:10:56;;;;;;;12.80;5.45;;;21.50;96.90;;;;;;4937304;28;20024;-84
2022/07/17 06:13:40;;;;;;;9.30;5.38;;;21.50;97.20;;;;;;4937066;29;20046;-85
2022/07/17 06:16:06;;;;;;;10.95;4.97;;;21.70;96.80;;;;;;4998536;28;20044;-83
2022/07/17 06:18:32;;;;;;;13.70;5.93;;;21.80;96.50;;;;;;4998945;28;20227;-83
2022/07/17 06:20:58;;;;;;;10.23;5.68;;;21.90;96.50;;;;;;4999182;28;20064;-82
2022/07/17 06:23:24;;;;;;;9.40;5.53;;;21.90;97.00;;;;;;5154499;23;20045;-84
2022/07/17 06:25:58;;;;;;;11.07;6.05;;;21.90;97.40;;;;;;4998890;28;20036;-83
2022/07/17 06:28:24;;;;;;;8.85;5.40;;;22.10;96.80;;;;;;4998923;28;20034;-84
2022/07/17 06:33:34;;;;;;;11.20;5.45;;;22.20;96.00;;;;;;5019632;23;20061;-82
2022/07/17 06:36:09;;;;;;;10.38;5.50;;;22.30;96.20;;;;;;4991348;28;20048;-81
2022/07/17 06:38:47;;;;;;;10.88;6.00;;;22.50;96.00;;;;;;4988616;28;20034;-84
2022/07/17 06:41:27;;;;;;;10.82;6.32;;;22.60;96.10;;;;;;4982985;28;20041;-85
2022/07/17 06:43:53;;;;;;;9.27;5.88;;;22.60;96.60;;;;;;4980972;28;20117;-82
2022/07/17 06:46:19;;;;;;;10.30;5.28;;;22.70;96.20;;;;;;4980303;28;20354;-83
2022/07/17 06:48:54;;;;;;;11.10;6.05;;;22.80;95.70;;;;;;5005571;23;20536;-85
2022/07/17 06:51:38;;;;;;;9.02;5.30;;;23.10;95.60;;;;;;4998128;28;20124;-85
2022/07/17 06:54:05;;;;;;;13.95;4.80;;;23.00;94.90;;;;;;4980354;28;20124;-84
2022/07/17 06:56:50;;;;;;;10.45;5.35;;;23.10;94.50;;;;;;5136479;23;20330;-85
2022/07/17 06:59:28;;;;;;;11.40;5.35;;;23.20;94.60;;;;;;5012095;23;20107;-83
2022/07/17 07:04:38;;;;;;;10.77;5.15;;;23.50;93.80;;;;;;5004336;23;20552;-82
2022/07/17 07:07:04;;;;;;;10.75;5.10;;;23.50;92.90;;;;;;4998610;28;20116;-84
2022/07/17 07:09:40;;;;;;;9.68;5.30;;;23.60;93.10;;;;;;5001051;28;20575;-82
2022/07/17 07:12:07;;;;;;;12.32;5.28;;;23.60;93.20;;;;;;4998443;28;20595;-84
2022/07/17 07:14:35;;;;;;;8.02;4.47;;;23.80;92.50;;;;;;5002746;28;20030;-84
2022/07/17 07:17:02;;;;;;;8.82;5.03;;;23.90;92.30;;;;;;5002000;28;20030;-84
2022/07/17 07:19:28;;;;;;;13.85;5.25;;;24.00;92.40;;;;;;5014223;28;20509;-82
2022/07/17 07:21:59;;;;;;;9.07;4.72;;;24.00;92.10;;;;;;4997920;28;20412;-85
2022/07/17 07:24:49;;;;;;;9.57;4.70;;;24.20;91.00;;;;;;4978370;28;20034;-83
2022/07/17 07:27:26;;;;;;;10.45;5.15;;;22.60;90.60;;;;;;4979021;28;20038;-82
2022/07/17 07:30:04;;;;;;;8.45;4.53;;;23.40;90.40;;;;;;4962574;28;20146;-83
2022/07/17 07:32:29;;;;;;;7.25;4.35;;;24.50;90.30;;;;;;4962694;28;20317;-83
2022/07/17 07:35:01;;;;;;;8.65;4.80;;;24.90;89.10;;;;;;4978816;28;20544;-84
2022/07/17 07:37:31;;;;;;;8.57;3.90;;;24.90;87.40;;;;;;4978539;28;20154;-82
2022/07/17 07:40:07;;;;;;;10.40;5.35;;;25.20;86.80;;;;;;4947276;28;20034;-82
2022/07/17 07:42:33;;;;;;;11.60;5.00;;;25.40;87.60;;;;;;4962448;28;20185;-84
2022/07/17 07:44:59;;;;;;;8.57;4.32;;;25.40;85.70;;;;;;4979536;28;20627;-84
2022/07/17 07:47:24;;;;;;;7.70;4.57;;;25.60;84.60;;;;;;4963003;28;20039;-85
2022/07/17 07:50:02;;;;;;;8.40;4.30;;;25.60;84.30;;;;;;4978951;28;20034;-85
2022/07/17 07:52:53;;;;;;;11.05;4.38;;;25.80;82.80;;;;;;4959327;28;20497;-81
2022/07/17 07:55:34;;;;;;;8.30;3.63;;;26.90;79.80;;;;;;4959006;28;20031;-83
2022/07/17 07:58:53;;;;;;;8.80;3.33;;;26.00;79.60;;;;;;4959834;28;20046;-85
2022/07/17 08:01:33;;;;;;;7.15;3.20;;;27.40;76.00;;;;;;4963899;28;20192;-83
2022/07/17 08:03:59;;;;;;;7.10;3.35;;;26.00;72.70;;;;;;4977842;28;20066;-83
2022/07/17 08:06:43;;;;;;;6.50;2.88;;;26.60;72.70;;;;;;4962102;28;20029;-86
2022/07/17 08:09:09;;;;;;;8.18;3.30;;;26.80;70.50;;;;;;4997865;23;20315;-85
2022/07/17 08:11:41;;;;;;;9.68;3.80;;;26.80;68.80;;;;;;5024109;23;20428;-81
2022/07/17 08:14:23;;;;;;;5.18;2.85;;;26.80;69.60;;;;;;4960609;28;20046;-82
2022/07/17 08:16:49;;;;;;;6.97;3.50;;;26.80;70.60;;;;;;5021808;23;20120;-84
2022/07/17 08:19:15;;;;;;;8.80;3.58;;;27.70;70.80;;;;;;5040449;28;20190;-82
2022/07/17 08:21:42;;;;;;;8.68;3.90;;;;;;;;;;5040950;28;20127;-84
2022/07/17 08:24:07;;;;;;;6.93;3.30;;;26.90;69.70;;;;;;5060245;28;20170;-82
2022/07/17 08:26:43;;;;;;;8.00;3.95;;;27.00;70.00;;;;;;5057777;22;20643;-85
2022/07/17 08:29:15;;;;;;;6.10;2.95;;;27.10;70.40;;;;;;5023140;28;20119;-85
2022/07/17 08:31:44;;;;;;;7.13;2.95;;;27.60;69.20;;;;;;5022580;28;20075;-83
2022/07/17 08:34:10;;;;;;;7.25;3.17;;;27.90;68.50;;;;;;5038531;28;20557;-85
2022/07/17 08:36:36;;;;;;;6.68;3.33;;;28.40;67.10;;;;;;5021706;28;20024;-84
2022/07/17 08:39:03;;;;;;;6.85;2.92;;;28.40;66.00;;;;;;5021793;28;20037;-83
2022/07/17 08:41:29;;;;;;;7.78;3.50;;;28.90;66.10;;;;;;5021673;28;20021;-84
2022/07/17 08:43:59;;;;;;;9.23;3.92;;;29.20;64.20;;;;;;5039291;28;20017;-85
2022/07/17 08:46:26;;;;;;;8.15;3.55;;;29.40;64.70;;;;;;5039392;28;20216;-84
2022/07/17 08:49:33;;;;;;;9.18;3.97;;;29.50;62.70;;;;;;5021753;28;20324;-83
2022/07/17 08:51:59;;;;;;;7.07;3.40;;;30.10;63.60;;;;;;5021818;28;20021;-82
2022/07/17 08:54:25;;;;;;;6.22;3.45;;;29.00;63.50;;;;;;5021743;28;20256;-83
2022/07/17 08:56:51;;;;;;;8.43;3.75;;;29.30;63.90;;;;;;5039949;28;20326;-82
2022/07/17 08:59:17;;;;;;;11.77;3.55;;;29.30;62.70;;;;;;5021701;28;20103;-82
2022/07/17 09:01:43;;;;;;;14.95;4.28;;;29.40;60.30;;;;;;5021679;28;20079;-82
2022/07/17 09:04:35;;;;;;;6.82;3.50;;;29.20;61.80;;;;;;5039691;28;20044;-84
2022/07/17 09:07:02;;;;;;;8.50;4.70;;;29.80;62.90;;;;;;5021588;28;20074;-82
2022/07/17 09:09:50;;;;;;;9.20;4.45;;;29.60;61.80;;;;;;5021441;28;20452;-84
2022/07/17 09:12:16;;;;;;;7.50;4.32;;;30.10;61.80;;;;;;5039329;28;20029;-84
2022/07/17 09:14:42;;;;;;;11.23;4.53;;;30.40;61.30;;;;;;5021205;28;20032;-82
2022/07/17 09:17:28;;;;;;;7.63;3.53;;;29.40;60.10;;;;;;5039047;28;20017;-84
2022/07/17 09:20:16;;;;;;;8.38;4.60;;;30.60;61.60;;;;;;5031655;23;20049;-84
2022/07/17 09:23:11;;;;;;;8.40;3.75;;;30.30;59.90;;;;;;5220989;23;20056;-82
2022/07/17 09:25:55;;;;;;;8.82;3.75;;;30.20;59.80;;;;;;5041098;28;20523;-84
2022/07/17 09:28:22;;;;;;;8.43;3.17;;;30.40;59.70;;;;;;5071356;23;20087;-83
2022/07/17 09:30:57;;;;;;;6.55;3.40;;;30.30;58.70;;;;;;5025694;23;20612;-85
2022/07/17 09:33:33;;;;;;;6.82;3.55;;;30.40;59.90;;;;;;5020930;28;20033;-82
2022/07/17 09:36:15;;;;;;;7.10;3.80;;;30.50;60.30;;;;;;5021050;28;20033;-84
2022/07/17 09:38:42;;;;;;;8.75;4.78;;;30.10;59.80;;;;;;5034527;23;20093;-85
2022/07/17 09:44:08;;;;;;;7.85;4.35;;;30.10;59.20;;;;;;5023537;23;20104;-83
2022/07/17 09:46:37;;;;;;;8.05;3.60;;;30.70;60.00;;;;;;5019474;28;20313;-85
2022/07/17 09:49:19;;;;;;;8.23;3.63;;;30.20;60.10;;;;;;4975578;28;20042;-82
2022/07/17 09:52:01;;;;;;;7.25;3.70;;;30.50;58.50;;;;;;4975962;28;20030;-84
2022/07/17 09:54:44;;;;;;;7.80;3.85;;;30.50;58.40;;;;;;4975786;28;20100;-83
2022/07/17 10:02:45;;;;;;;9.25;3.83;;;32.00;56.80;;;;;;5018702;28;20534;-85
2022/07/17 10:05:24;;;;;;;9.13;3.85;;;30.40;56.70;;;;;;5147815;23;20057;-82
2022/07/17 10:10:20;;;;;;;6.95;3.70;;;30.60;56.10;;;;;;5036957;28;20065;-81
2022/07/17 10:20:29;;;;;;;7.15;3.38;;;31.40;54.20;;;;;;5100952;23;20062;-85
2022/07/17 10:22:55;;;;;;;7.45;3.45;;;31.10;54.20;;;;;;5033119;28;20022;-85
2022/07/17 10:26:00;;;;;;;8.95;4.05;;;31.10;54.10;;;;;;5035025;28;20063;-85
2022/07/17 10:38:14;;;;;;;5.53;3.03;;;34.00;52.50;;;;;;5470833;22;20009;-84
2022/07/17 10:40:41;;;;;;;6.32;2.90;;;32.50;51.00;;;;;;5001009;28;20041;-82
2022/07/17 10:43:08;;;;;;;6.90;3.25;;;32.50;50.80;;;;;;5001098;28;20095;-83
2022/07/17 10:45:46;;;;;;;6.35;3.05;;;31.90;50.50;;;;;;5000148;28;20025;-85
2022/07/17 10:48:47;;;;;;;6.60;2.88;;;31.60;52.00;;;;;;5008358;22;20706;-84
2022/07/17 10:51:57;;;;;;;6.65;3.08;;;32.20;51.90;;;;;;4998694;28;20084;-83
2022/07/17 10:57:47;;;;;;;5.13;2.55;;;31.50;51.00;;;;;;5205688;22;20157;-82
2022/07/17 11:02:43;;;;;;;5.93;2.83;;;32.10;51.60;;;;;;5041846;22;20145;-84
2022/07/17 11:05:57;;;;;;;7.25;3.38;;;32.60;49.90;;;;;;5037596;28;20017;-84
2022/07/17 11:11:51;;;;;;;8.35;3.00;;;34.30;50.60;;;;;;4955726;28;20826;-84
2022/07/17 11:17:34;;;;;;;6.20;2.75;;;33.40;48.90;;;;;;5016003;28;20053;-84
2022/07/17 11:29:12;;;;;;;5.43;2.83;;;34.40;47.30;;;;;;5015547;28;20053;-84
2022/07/17 11:34:26;;;;;;;6.07;3.30;;;34.70;46.50;;;;;;5021315;22;20560;-80
2022/07/17 11:36:59;;;;;;;7.80;2.90;;;34.90;45.60;;;;;;5017177;28;20036;-85
2022/07/17 11:52:29;;;;;;;5.15;2.58;;;36.60;44.10;;;;;;4955950;23;20357;-85
2022/07/17 11:55:04;;;;;;;10.15;3.97;;;37.10;43.40;;;;;;4939164;28;20434;-85
2022/07/17 11:57:56;;;;;;;7.80;3.33;;;36.80;42.70;;;;;;4937914;29;20039;-85
2022/07/17 12:00:40;;;;;;;7.87;4.07;;;37.40;43.70;;;;;;4938907;28;20054;-86
2022/07/17 12:03:30;;;;;;;10.48;4.60;;;35.30;44.60;;;;;;4938975;28;20093;-86
2022/07/17 12:06:01;;;;;;;8.00;3.15;;;35.20;44.30;;;;;;4937741;28;20086;-85
2022/07/17 12:11:58;;;;;;;5.07;2.40;;;35.00;43.60;;;;;;4942861;29;20046;-85
2022/07/17 12:14:57;;;;;;;5.88;2.83;;;37.10;43.90;;;;;;4957930;28;20186;-85
2022/07/17 12:26:24;;;;;;;7.25;3.80;;;38.80;42.20;;;;;;4926885;23;20050;-84
2022/07/17 12:34:50;;;;;;;3.65;2.08;;;37.50;40.90;;;;;;5588393;23;20747;-84
2022/07/17 12:40:36;;;;;;;5.50;2.30;;;35.50;42.70;;;;;;1452870;26;20544;-85
2022/07/17 12:43:20;;;;;;;5.70;2.55;;;35.20;44.20;;;;;;5000121;28;20283;-86
2022/07/17 12:45:52;;;;;;;3.03;1.80;;;34.20;45.30;;;;;;5000097;28;20319;-84
2022/07/17 12:48:55;;;;;;;4.45;2.45;;;34.10;44.60;;;;;;4981653;23;20099;-83
2022/07/17 13:00:37;;;;;;;4.93;2.20;;;37.30;40.80;;;;;;4978362;28;20116;-83
2022/07/17 13:08:36;;;;;;;4.47;2.17;;;37.00;40.90;;;;;;5338106;22;20370;-84
2022/07/17 13:11:11;;;;;;;3.95;2.13;;;36.90;42.70;;;;;;4962434;28;20193;-84
2022/07/17 13:13:50;;;;;;;7.43;3.17;;;36.90;42.10;;;;;;4979786;28;20038;-84
2022/07/17 13:21:34;;;;;;;3.95;2.25;;;38.20;40.40;;;;;;4984547;22;20082;-85
2022/07/17 13:36:23;;;;;;;5.00;2.13;;;40.80;37.10;;;;;;4979795;28;20488;-85
2022/07/17 13:38:58;;;;;;;4.97;1.90;;;41.30;39.00;;;;;;5066622;23;20054;-85
2022/07/17 13:42:05;;;;;;;5.07;2.28;;;39.90;38.20;;;;;;4998274;28;20137;-85
2022/07/17 13:45:23;;;;;;;;;;;;;;;;;;;;;
2022/07/17 13:48:26;;;;;;;4.97;2.17;;;39.10;38.90;;;;;;4998732;28;20052;-84
2022/07/17 13:53:29;;;;;;;4.82;2.10;;;37.10;40.50;;;;;;5207716;23;20058;-85
2022/07/17 13:55:55;;;;;;;5.50;1.90;;;37.00;41.70;;;;;;5035009;23;20370;-85
2022/07/17 13:58:39;;;;;;;5.65;2.42;;;37.30;41.30;;;;;;4978282;28;20030;-85
2022/07/17 14:01:19;;;;;;;5.53;2.40;;;36.90;43.00;;;;;;4978734;28;20030;-85
2022/07/17 14:04:11;;;;;;;4.45;2.10;;;36.10;43.90;;;;;;4961072;28;20019;-85
2022/07/17 14:07:14;;;;;;;5.55;2.15;;;34.80;41.40;;;;;;4961268;28;20189;-84
2022/07/17 14:12:15;;;;;;;4.50;1.88;;;37.10;41.50;;;;;;5201420;23;20050;-85
2022/07/17 14:38:55;;;;;;;6.80;2.03;;;41.30;36.90;;;;;;4998323;28;20598;-84
2022/07/17 14:41:27;;;;;;;4.35;2.05;;;40.50;36.40;;;;;;4997939;28;20334;-85
2022/07/17 14:43:55;;;;;;;;;;;41.50;37.60;;;;;;4998475;28;20025;-83
2022/07/17 14:49:57;;;;;;;4.45;2.17;;;42.50;37.50;;;;;;4936674;29;20039;-85
2022/07/17 14:52:27;;;;;;;3.97;1.80;;;40.80;38.50;;;;;;4936112;29;20051;-84
2022/07/17 14:55:26;;;;;;;4.97;2.15;;;41.50;37.70;;;;;;4936614;29;20559;-83
2022/07/17 14:58:01;;;;;;;6.05;2.58;;;41.30;37.50;;;;;;5110856;23;20380;-84
2022/07/17 15:00:28;;;;;;;3.58;1.98;;;41.00;37.10;;;;;;4977149;28;20403;-85
2022/07/17 15:03:06;;;;;;;5.18;2.22;;;40.70;38.40;;;;;;4944790;28;20027;-84
2022/07/17 15:05:33;;;;;;;4.57;2.03;;;40.50;37.00;;;;;;4978188;28;20064;-84
2022/07/17 15:08:24;;;;;;;5.25;2.20;;;42.10;36.70;;;;;;4978164;28;20643;-85
2022/07/17 15:13:43;;;;;;;3.20;1.70;;;42.40;36.60;;;;;;5002330;23;20100;-84
2022/07/17 15:16:09;;;;;;;5.28;2.55;;;41.50;35.50;;;;;;4979380;28;20038;-83
2022/07/17 15:18:35;;;;;;;5.68;2.40;;;42.60;35.60;;;;;;4996816;28;20042;-84
2022/07/17 15:32:39;;;;;;;4.45;2.05;;;43.30;36.10;;;;;;4916702;29;20106;-83
2022/07/17 15:35:26;;;;;;;6.40;2.13;;;42.60;38.60;;;;;;4917156;29;20095;-83
2022/07/17 15:37:58;;;;;;;3.72;1.85;;;41.90;34.80;;;;;;4917082;29;20036;-82
2022/07/17 15:43:18;;;;;;;6.68;2.30;;;42.10;35.60;;;;;;4918963;29;20086;-83
2022/07/17 15:49:17;;;;;;;3.30;1.70;;;40.80;35.50;;;;;;4920887;29;20537;-83
2022/07/17 15:52:01;;;;;;;3.35;1.77;;;40.60;36.60;;;;;;4919947;29;20126;-84
2022/07/17 15:54:35;;;;;;;5.53;2.10;;;40.90;36.80;;;;;;4920365;29;20048;-84
2022/07/17 15:57:39;;;;;;;4.53;1.98;;;41.30;36.10;;;;;;4901011;29;20794;-83
2022/07/17 16:00:19;;;;;;;7.72;2.03;;;39.70;35.70;;;;;;4901210;29;20052;-81
2022/07/17 16:02:57;;;;;;;5.10;2.13;;;41.50;36.20;;;;;;4885312;29;20194;-85
2022/07/17 16:05:32;;;;;;;4.72;2.33;;;41.50;36.20;;;;;;4901594;29;20482;-85
2022/07/17 16:08:10;;;;;;;3.78;1.70;;;41.20;36.00;;;;;;4901094;29;20056;-85
2022/07/17 16:10:48;;;;;;;7.13;1.85;;;39.60;35.70;;;;;;4934703;29;20230;-85
2022/07/17 16:13:14;;;;;;;3.58;1.55;;;40.90;37.00;;;;;;4939163;29;20036;-84
2022/07/17 16:15:49;;;;;;;3.83;2.00;;;40.60;36.40;;;;;;4939122;29;20111;-84
2022/07/17 16:18:15;;;;;;;3.83;1.90;;;41.20;36.80;;;;;;4938682;29;20237;-84
2022/07/17 16:20:40;;;;;;;4.70;2.13;;;40.80;35.90;;;;;;4938874;29;20597;-85
2022/07/17 16:23:06;;;;;;;6.03;2.50;;;40.50;36.00;;;;;;4950696;28;20490;-85
2022/07/17 16:25:39;;;;;;;3.60;1.80;;;40.20;36.80;;;;;;4941808;28;20075;-85
2022/07/17 16:28:46;;;;;;;5.43;2.20;;;39.40;36.00;;;;;;4970711;28;20133;-85
2022/07/17 16:31:12;;;;;;;5.38;2.05;;;;;;;;;;4983026;28;20224;-82
2022/07/17 16:33:38;;;;;;;4.68;1.88;;;39.20;36.40;;;;;;5000246;28;20022;-83
2022/07/17 16:36:04;;;;;;;4.25;1.90;;;38.60;37.40;;;;;;4982477;28;20578;-84
2022/07/17 16:38:31;;;;;;;4.10;2.08;;;38.20;37.60;;;;;;5000114;28;20026;-83
2022/07/17 16:40:57;;;;;;;4.13;1.98;;;38.20;37.70;;;;;;4982048;28;20030;-84
2022/07/17 16:43:23;;;;;;;3.00;1.70;;;37.90;37.80;;;;;;4982142;28;20109;-85
2022/07/17 16:45:51;;;;;;;3.40;1.88;;;37.60;37.90;;;;;;4981668;28;20334;-85
2022/07/17 16:48:17;;;;;;;3.88;1.67;;;37.20;38.50;;;;;;4982065;28;20270;-83
2022/07/17 16:50:49;;;;;;;6.28;2.20;;;37.20;38.60;;;;;;4982715;28;20079;-85
2022/07/17 16:53:54;;;;;;;;;;;;;;;;;;;;;
2022/07/17 16:56:41;;;;;;;4.57;2.13;;;35.60;39.80;;;;;;4920781;29;20625;-85